sensor_id;sensor_type;location;lat;lon;timestamp;P1;durP1;ratioP1;P2;durP2;ratioP2
30133;SDS011;16946;49.984;10.672;2023-02-28T00:00:05;6.27;;;5.67;;
30133;SDS011;16946;49.984;10.672;2023-02-28T00:00:40;7.05;;;5.55;;
30133;SDS011;16946;49.984;10.672;2023-02-28T00:01:11;6.00;;;5.40;;
30133;SDS011;16946;49.984;10.672;2023-02-28T00:01:43;6.18;;;5.50;;
30133;SDS011;16946;49.984;10.672;2023-02-28T00:02:13;5.70;;;5.13;;
30133;SDS011;16946;49.984;10.672;2023-02-28T00:02:44;6.13;;;5.63;;
30133;SDS011;16946;49.984;10.672;2023-02-28T00:03:15;6.40;;;5.80;;
30133;SDS011;16946;49.984;10.672;2023-02-28T00:03:46;6.37;;;5.73;;
30133;SDS011;16946;49.984;10.672;2023-02-28T00:04:17;5.60;;;5.10;;
30133;SDS011;16946;49.984;10.672;2023-02-28T00:04:47;6.20;;;5.60;;
30133;SDS011;16946;49.984;10.672;2023-02-28T00:05:23;6.00;;;5.40;;
30133;SDS011;16946;49.984;10.672;2023-02-28T00:05:55;7.75;;;6.03;;
30133;SDS011;16946;49.984;10.672;2023-02-28T00:06:25;5.80;;;5.30;;
30133;SDS011;16946;49.984;10.672;2023-02-28T00:06:56;6.35;;;5.75;;
30133;SDS011;16946;49.984;10.672;2023-02-28T00:07:27;6.13;;;5.60;;
30133;SDS011;16946;49.984;10.672;2023-02-28T00:07:58;6.13;;;5.53;;
30133;SDS011;16946;49.984;10.672;2023-02-28T00:08:28;5.93;;;5.40;;
30133;SDS011;16946;49.984;10.672;2023-02-28T00:08:59;5.93;;;5.43;;
30133;SDS011;16946;49.984;10.672;2023-02-28T00:09:29;7.63;;;5.73;;
30133;SDS011;16946;49.984;10.672;2023-02-28T00:10:00;5.83;;;5.23;;
30133;SDS011;16946;49.984;10.672;2023-02-28T00:10:31;5.77;;;5.27;;
30133;SDS011;16946;49.984;10.672;2023-02-28T00:11:02;6.32;;;5.68;;
30133;SDS011;16946;49.984;10.672;2023-02-28T00:11:37;6.75;;;6.05;;
30133;SDS011;16946;49.984;10.672;2023-02-28T00:12:07;6.70;;;5.43;;
30133;SDS011;16946;49.984;10.672;2023-02-28T00:12:39;6.82;;;5.75;;
30133;SDS011;16946;49.984;10.672;2023-02-28T00:13:11;6.90;;;6.13;;
30133;SDS011;16946;49.984;10.672;2023-02-28T00:13:42;6.57;;;5.90;;
30133;SDS011;16946;49.984;10.672;2023-02-28T00:14:16;7.18;;;5.93;;
30133;SDS011;16946;49.984;10.672;2023-02-28T00:14:46;6.30;;;5.40;;
30133;SDS011;16946;49.984;10.672;2023-02-28T00:15:17;6.40;;;5.73;;
30133;SDS011;16946;49.984;10.672;2023-02-28T00:15:57;7.13;;;6.20;;
30133;SDS011;16946;49.984;10.672;2023-02-28T00:16:33;7.30;;;6.40;;
30133;SDS011;16946;49.984;10.672;2023-02-28T00:17:03;7.40;;;6.23;;
30133;SDS011;16946;49.984;10.672;2023-02-28T00:17:34;6.67;;;6.00;;
30133;SDS011;16946;49.984;10.672;2023-02-28T00:18:05;6.90;;;6.20;;
30133;SDS011;16946;49.984;10.672;2023-02-28T00:18:35;7.63;;;5.80;;
30133;SDS011;16946;49.984;10.672;2023-02-28T00:19:06;6.63;;;5.82;;
30133;SDS011;16946;49.984;10.672;2023-02-28T00:19:37;8.43;;;6.07;;
30133;SDS011;16946;49.984;10.672;2023-02-28T00:20:08;7.20;;;5.77;;
30133;SDS011;16946;49.984;10.672;2023-02-28T00:20:42;7.25;;;6.47;;
30133;SDS011;16946;49.984;10.672;2023-02-28T00:21:13;6.70;;;6.10;;
30133;SDS011;16946;49.984;10.672;2023-02-28T00:21:44;6.10;;;5.50;;
30133;SDS011;16946;49.984;10.672;2023-02-28T00:22:15;6.10;;;5.60;;
30133;SDS011;16946;49.984;10.672;2023-02-28T00:22:50;6.65;;;5.95;;
30133;SDS011;16946;49.984;10.672;2023-02-28T00:23:22;6.55;;;5.85;;
30133;SDS011;16946;49.984;10.672;2023-02-28T00:23:52;6.33;;;5.73;;
30133;SDS011;16946;49.984;10.672;2023-02-28T00:24:23;6.50;;;5.70;;
30133;SDS011;16946;49.984;10.672;2023-02-28T00:24:53;6.23;;;5.30;;
30133;SDS011;16946;49.984;10.672;2023-02-28T00:25:24;7.33;;;6.10;;
30133;SDS011;16946;49.984;10.672;2023-02-28T00:25:55;5.82;;;5.32;;
30133;SDS011;16946;49.984;10.672;2023-02-28T00:26:26;6.47;;;5.87;;
30133;SDS011;16946;49.984;10.672;2023-02-28T00:26:56;6.77;;;5.50;;
30133;SDS011;16946;49.984;10.672;2023-02-28T00:27:27;6.47;;;5.87;;
30133;SDS011;16946;49.984;10.672;2023-02-28T00:27:57;6.27;;;5.53;;
30133;SDS011;16946;49.984;10.672;2023-02-28T00:28:28;6.90;;;6.13;;
30133;SDS011;16946;49.984;10.672;2023-02-28T00:28:59;5.77;;;5.23;;
30133;SDS011;16946;49.984;10.672;2023-02-28T00:29:29;6.30;;;5.70;;
30133;SDS011;16946;49.984;10.672;2023-02-28T00:30:00;7.30;;;5.80;;
30133;SDS011;16946;49.984;10.672;2023-02-28T00:30:31;6.47;;;5.88;;
30133;SDS011;16946;49.984;10.672;2023-02-28T00:31:01;6.07;;;5.57;;
30133;SDS011;16946;49.984;10.672;2023-02-28T00:31:32;6.00;;;5.40;;
30133;SDS011;16946;49.984;10.672;2023-02-28T00:32:03;6.00;;;5.50;;
30133;SDS011;16946;49.984;10.672;2023-02-28T00:32:34;6.07;;;5.47;;
30133;SDS011;16946;49.984;10.672;2023-02-28T00:33:05;5.73;;;5.23;;
30133;SDS011;16946;49.984;10.672;2023-02-28T00:33:36;6.70;;;5.77;;
30133;SDS011;16946;49.984;10.672;2023-02-28T00:34:06;6.13;;;5.53;;
30133;SDS011;16946;49.984;10.672;2023-02-28T00:34:37;6.70;;;6.00;;
30133;SDS011;16946;49.984;10.672;2023-02-28T00:35:08;6.60;;;5.90;;
30133;SDS011;16946;49.984;10.672;2023-02-28T00:35:39;6.10;;;5.50;;
30133;SDS011;16946;49.984;10.672;2023-02-28T00:36:10;7.23;;;5.43;;
30133;SDS011;16946;49.984;10.672;2023-02-28T00:36:41;6.72;;;5.38;;
30133;SDS011;16946;49.984;10.672;2023-02-28T00:37:15;6.82;;;5.85;;
30133;SDS011;16946;49.984;10.672;2023-02-28T00:37:45;7.83;;;6.10;;
30133;SDS011;16946;49.984;10.672;2023-02-28T00:38:18;6.97;;;5.80;;
30133;SDS011;16946;49.984;10.672;2023-02-28T00:38:48;6.93;;;6.27;;
30133;SDS011;16946;49.984;10.672;2023-02-28T00:39:19;8.63;;;5.37;;
30133;SDS011;16946;49.984;10.672;2023-02-28T00:39:49;6.73;;;5.40;;
30133;SDS011;16946;49.984;10.672;2023-02-28T00:40:20;6.90;;;5.73;;
30133;SDS011;16946;49.984;10.672;2023-02-28T00:40:51;6.43;;;5.83;;
30133;SDS011;16946;49.984;10.672;2023-02-28T00:41:21;6.80;;;6.20;;
30133;SDS011;16946;49.984;10.672;2023-02-28T00:41:52;6.07;;;5.47;;
30133;SDS011;16946;49.984;10.672;2023-02-28T00:42:22;6.20;;;5.60;;
30133;SDS011;16946;49.984;10.672;2023-02-28T00:42:53;7.43;;;6.25;;
30133;SDS011;16946;49.984;10.672;2023-02-28T00:43:24;6.93;;;6.00;;
30133;SDS011;16946;49.984;10.672;2023-02-28T00:43:54;6.73;;;5.37;;
30133;SDS011;16946;49.984;10.672;2023-02-28T00:44:25;5.90;;;5.30;;
30133;SDS011;16946;49.984;10.672;2023-02-28T00:44:55;6.47;;;5.87;;
30133;SDS011;16946;49.984;10.672;2023-02-28T00:45:26;7.33;;;5.97;;
30133;SDS011;16946;49.984;10.672;2023-02-28T00:45:56;7.03;;;5.70;;
30133;SDS011;16946;49.984;10.672;2023-02-28T00:46:27;6.23;;;5.40;;
30133;SDS011;16946;49.984;10.672;2023-02-28T00:46:58;6.10;;;5.60;;
30133;SDS011;16946;49.984;10.672;2023-02-28T00:47:29;6.78;;;6.05;;
30133;SDS011;16946;49.984;10.672;2023-02-28T00:48:00;6.30;;;5.70;;
30133;SDS011;16946;49.984;10.672;2023-02-28T00:48:30;6.47;;;5.70;;
30133;SDS011;16946;49.984;10.672;2023-02-28T00:49:01;7.13;;;6.43;;
30133;SDS011;16946;49.984;10.672;2023-02-28T00:49:31;6.10;;;5.50;;
30133;SDS011;16946;49.984;10.672;2023-02-28T00:50:02;7.90;;;5.70;;
30133;SDS011;16946;49.984;10.672;2023-02-28T00:50:34;5.93;;;5.32;;
30133;SDS011;16946;49.984;10.672;2023-02-28T00:51:04;6.30;;;5.53;;
30133;SDS011;16946;49.984;10.672;2023-02-28T00:51:35;5.83;;;5.33;;
30133;SDS011;16946;49.984;10.672;2023-02-28T00:52:05;6.53;;;5.70;;
30133;SDS011;16946;49.984;10.672;2023-02-28T00:52:36;6.53;;;5.60;;
30133;SDS011;16946;49.984;10.672;2023-02-28T00:53:06;8.43;;;6.10;;
30133;SDS011;16946;49.984;10.672;2023-02-28T00:53:37;6.87;;;6.17;;
30133;SDS011;16946;49.984;10.672;2023-02-28T00:54:08;6.17;;;5.57;;
30133;SDS011;16946;49.984;10.672;2023-02-28T00:54:38;6.70;;;5.50;;
30133;SDS011;16946;49.984;10.672;2023-02-28T00:55:09;6.30;;;5.77;;
30133;SDS011;16946;49.984;10.672;2023-02-28T00:55:39;6.93;;;6.20;;
30133;SDS011;16946;49.984;10.672;2023-02-28T00:56:10;6.33;;;5.57;;
30133;SDS011;16946;49.984;10.672;2023-02-28T00:56:40;6.47;;;5.00;;
30133;SDS011;16946;49.984;10.672;2023-02-28T00:57:11;5.93;;;5.33;;
30133;SDS011;16946;49.984;10.672;2023-02-28T00:57:41;5.97;;;5.47;;
30133;SDS011;16946;49.984;10.672;2023-02-28T00:58:12;6.63;;;5.80;;
30133;SDS011;16946;49.984;10.672;2023-02-28T00:58:43;6.50;;;5.80;;
30133;SDS011;16946;49.984;10.672;2023-02-28T00:59:14;6.47;;;5.60;;
30133;SDS011;16946;49.984;10.672;2023-02-28T00:59:45;6.25;;;5.65;;
30133;SDS011;16946;49.984;10.672;2023-02-28T01:00:16;7.03;;;6.33;;
30133;SDS011;16946;49.984;10.672;2023-02-28T01:00:47;6.80;;;5.97;;
30133;SDS011;16946;49.984;10.672;2023-02-28T01:01:18;7.40;;;6.40;;
30133;SDS011;16946;49.984;10.672;2023-02-28T01:01:49;7.03;;;5.93;;
30133;SDS011;16946;49.984;10.672;2023-02-28T01:02:20;6.57;;;5.87;;
30133;SDS011;16946;49.984;10.672;2023-02-28T01:02:52;6.80;;;5.90;;
30133;SDS011;16946;49.984;10.672;2023-02-28T01:03:22;6.33;;;5.80;;
30133;SDS011;16946;49.984;10.672;2023-02-28T01:03:53;6.60;;;6.00;;
30133;SDS011;16946;49.984;10.672;2023-02-28T01:04:23;7.67;;;5.80;;
30133;SDS011;16946;49.984;10.672;2023-02-28T01:04:54;6.07;;;5.47;;
30133;SDS011;16946;49.984;10.672;2023-02-28T01:05:24;6.30;;;5.70;;
30133;SDS011;16946;49.984;10.672;2023-02-28T01:05:55;7.20;;;5.73;;
30133;SDS011;16946;49.984;10.672;2023-02-28T01:06:25;9.50;;;5.90;;
30133;SDS011;16946;49.984;10.672;2023-02-28T01:06:56;6.53;;;5.83;;
30133;SDS011;16946;49.984;10.672;2023-02-28T01:07:26;6.47;;;5.87;;
30133;SDS011;16946;49.984;10.672;2023-02-28T01:07:57;6.10;;;5.43;;
30133;SDS011;16946;49.984;10.672;2023-02-28T01:08:27;6.63;;;5.80;;
30133;SDS011;16946;49.984;10.672;2023-02-28T01:08:58;6.37;;;5.47;;
30133;SDS011;16946;49.984;10.672;2023-02-28T01:09:29;6.40;;;5.80;;
30133;SDS011;16946;49.984;10.672;2023-02-28T01:10:00;6.03;;;5.53;;
30133;SDS011;16946;49.984;10.672;2023-02-28T01:10:31;8.17;;;5.70;;
30133;SDS011;16946;49.984;10.672;2023-02-28T01:11:08;6.03;;;5.47;;
30133;SDS011;16946;49.984;10.672;2023-02-28T01:11:42;5.88;;;5.30;;
30133;SDS011;16946;49.984;10.672;2023-02-28T01:12:14;6.53;;;5.60;;
30133;SDS011;16946;49.984;10.672;2023-02-28T01:12:44;6.60;;;6.00;;
30133;SDS011;16946;49.984;10.672;2023-02-28T01:13:15;6.97;;;5.53;;
30133;SDS011;16946;49.984;10.672;2023-02-28T01:13:46;6.45;;;5.85;;
30133;SDS011;16946;49.984;10.672;2023-02-28T01:14:17;6.50;;;5.53;;
30133;SDS011;16946;49.984;10.672;2023-02-28T01:14:48;6.38;;;5.78;;
30133;SDS011;16946;49.984;10.672;2023-02-28T01:15:18;6.57;;;5.87;;
30133;SDS011;16946;49.984;10.672;2023-02-28T01:15:50;6.50;;;5.90;;
30133;SDS011;16946;49.984;10.672;2023-02-28T01:16:22;9.07;;;6.00;;
30133;SDS011;16946;49.984;10.672;2023-02-28T01:16:53;6.33;;;5.73;;
30133;SDS011;16946;49.984;10.672;2023-02-28T01:17:23;5.90;;;5.40;;
30133;SDS011;16946;49.984;10.672;2023-02-28T01:17:54;6.27;;;5.67;;
30133;SDS011;16946;49.984;10.672;2023-02-28T01:18:24;7.13;;;5.67;;
30133;SDS011;16946;49.984;10.672;2023-02-28T01:18:55;6.40;;;5.80;;
30133;SDS011;16946;49.984;10.672;2023-02-28T01:19:26;6.38;;;5.65;;
30133;SDS011;16946;49.984;10.672;2023-02-28T01:19:57;6.67;;;5.97;;
30133;SDS011;16946;49.984;10.672;2023-02-28T01:20:27;6.77;;;5.67;;
30133;SDS011;16946;49.984;10.672;2023-02-28T01:20:58;7.20;;;6.33;;
30133;SDS011;16946;49.984;10.672;2023-02-28T01:21:36;6.82;;;5.85;;
30133;SDS011;16946;49.984;10.672;2023-02-28T01:22:07;5.90;;;5.40;;
30133;SDS011;16946;49.984;10.672;2023-02-28T01:22:38;6.37;;;5.77;;
30133;SDS011;16946;49.984;10.672;2023-02-28T01:23:08;6.00;;;5.40;;
30133;SDS011;16946;49.984;10.672;2023-02-28T01:23:39;5.93;;;5.43;;
30133;SDS011;16946;49.984;10.672;2023-02-28T01:24:10;6.60;;;5.65;;
30133;SDS011;16946;49.984;10.672;2023-02-28T01:24:40;6.13;;;5.53;;
30133;SDS011;16946;49.984;10.672;2023-02-28T01:25:11;6.50;;;5.90;;
30133;SDS011;16946;49.984;10.672;2023-02-28T01:25:42;6.20;;;5.60;;
30133;SDS011;16946;49.984;10.672;2023-02-28T01:26:13;5.93;;;5.33;;
30133;SDS011;16946;49.984;10.672;2023-02-28T01:26:46;5.55;;;5.05;;
30133;SDS011;16946;49.984;10.672;2023-02-28T01:27:17;7.13;;;5.73;;
30133;SDS011;16946;49.984;10.672;2023-02-28T01:27:47;6.17;;;5.57;;
30133;SDS011;16946;49.984;10.672;2023-02-28T01:28:18;6.27;;;5.33;;
30133;SDS011;16946;49.984;10.672;2023-02-28T01:28:49;6.33;;;5.73;;
30133;SDS011;16946;49.984;10.672;2023-02-28T01:29:21;7.35;;;5.80;;
30133;SDS011;16946;49.984;10.672;2023-02-28T01:29:52;6.67;;;5.97;;
30133;SDS011;16946;49.984;10.672;2023-02-28T01:30:22;6.60;;;5.97;;
30133;SDS011;16946;49.984;10.672;2023-02-28T01:30:53;6.37;;;5.77;;
30133;SDS011;16946;49.984;10.672;2023-02-28T01:31:24;6.93;;;5.20;;
30133;SDS011;16946;49.984;10.672;2023-02-28T01:31:54;6.73;;;5.70;;
30133;SDS011;16946;49.984;10.672;2023-02-28T01:32:25;6.80;;;5.73;;
30133;SDS011;16946;49.984;10.672;2023-02-28T01:32:55;6.77;;;6.07;;
30133;SDS011;16946;49.984;10.672;2023-02-28T01:33:26;8.23;;;5.90;;
30133;SDS011;16946;49.984;10.672;2023-02-28T01:33:57;6.30;;;5.70;;
30133;SDS011;16946;49.984;10.672;2023-02-28T01:34:27;6.27;;;5.67;;
30133;SDS011;16946;49.984;10.672;2023-02-28T01:34:58;6.80;;;6.03;;
30133;SDS011;16946;49.984;10.672;2023-02-28T01:35:28;6.60;;;5.97;;
30133;SDS011;16946;49.984;10.672;2023-02-28T01:36:06;6.43;;;5.82;;
30133;SDS011;16946;49.984;10.672;2023-02-28T01:36:45;6.35;;;5.75;;
30133;SDS011;16946;49.984;10.672;2023-02-28T01:37:16;6.80;;;6.10;;
30133;SDS011;16946;49.984;10.672;2023-02-28T01:37:46;6.23;;;5.50;;
30133;SDS011;16946;49.984;10.672;2023-02-28T01:38:17;6.80;;;6.10;;
30133;SDS011;16946;49.984;10.672;2023-02-28T01:38:47;6.73;;;6.03;;
30133;SDS011;16946;49.984;10.672;2023-02-28T01:39:19;6.68;;;6.00;;
30133;SDS011;16946;49.984;10.672;2023-02-28T01:39:49;6.53;;;5.80;;
30133;SDS011;16946;49.984;10.672;2023-02-28T01:40:20;7.17;;;6.30;;
30133;SDS011;16946;49.984;10.672;2023-02-28T01:40:50;6.30;;;5.70;;
30133;SDS011;16946;49.984;10.672;2023-02-28T01:41:25;7.00;;;6.30;;
30133;SDS011;16946;49.984;10.672;2023-02-28T01:41:58;6.88;;;6.15;;
30133;SDS011;16946;49.984;10.672;2023-02-28T01:42:29;6.60;;;6.00;;
30133;SDS011;16946;49.984;10.672;2023-02-28T01:42:59;6.60;;;5.77;;
30133;SDS011;16946;49.984;10.672;2023-02-28T01:43:31;6.97;;;5.43;;
30133;SDS011;16946;49.984;10.672;2023-02-28T01:45:30;8.20;;;5.97;;
30133;SDS011;16946;49.984;10.672;2023-02-28T01:46:04;7.47;;;6.05;;
30133;SDS011;16946;49.984;10.672;2023-02-28T01:46:35;6.30;;;5.70;;
30133;SDS011;16946;49.984;10.672;2023-02-28T01:47:06;6.95;;;6.10;;
30133;SDS011;16946;49.984;10.672;2023-02-28T01:47:38;6.47;;;5.87;;
30133;SDS011;16946;49.984;10.672;2023-02-28T01:48:12;7.88;;;6.10;;
30133;SDS011;16946;49.984;10.672;2023-02-28T01:48:44;5.80;;;5.20;;
30133;SDS011;16946;49.984;10.672;2023-02-28T01:49:16;6.43;;;5.82;;
30133;SDS011;16946;49.984;10.672;2023-02-28T01:49:48;6.43;;;5.82;;
30133;SDS011;16946;49.984;10.672;2023-02-28T01:50:22;6.15;;;5.55;;
30133;SDS011;16946;49.984;10.672;2023-02-28T01:50:57;6.70;;;6.00;;
30133;SDS011;16946;49.984;10.672;2023-02-28T01:51:37;7.38;;;6.10;;
30133;SDS011;16946;49.984;10.672;2023-02-28T01:52:15;7.13;;;5.82;;
30133;SDS011;16946;49.984;10.672;2023-02-28T01:52:48;6.60;;;5.85;;
30133;SDS011;16946;49.984;10.672;2023-02-28T01:53:21;7.70;;;5.90;;
30133;SDS011;16946;49.984;10.672;2023-02-28T01:54:00;6.25;;;5.40;;
30133;SDS011;16946;49.984;10.672;2023-02-28T01:54:34;6.45;;;5.85;;
30133;SDS011;16946;49.984;10.672;2023-02-28T01:55:05;6.20;;;5.60;;
30133;SDS011;16946;49.984;10.672;2023-02-28T01:55:37;6.80;;;6.10;;
30133;SDS011;16946;49.984;10.672;2023-02-28T01:56:12;7.18;;;6.43;;
30133;SDS011;16946;49.984;10.672;2023-02-28T01:56:54;6.85;;;5.97;;
30133;SDS011;16946;49.984;10.672;2023-02-28T01:57:29;7.80;;;6.05;;
30133;SDS011;16946;49.984;10.672;2023-02-28T01:58:07;6.05;;;5.43;;
30133;SDS011;16946;49.984;10.672;2023-02-28T01:58:38;5.85;;;5.25;;
30133;SDS011;16946;49.984;10.672;2023-02-28T01:59:09;6.83;;;5.53;;
30133;SDS011;16946;49.984;10.672;2023-02-28T01:59:51;7.30;;;6.00;;
30133;SDS011;16946;49.984;10.672;2023-02-28T02:00:23;7.22;;;6.53;;
30133;SDS011;16946;49.984;10.672;2023-02-28T02:00:56;7.03;;;6.07;;
30133;SDS011;16946;49.984;10.672;2023-02-28T02:01:27;6.97;;;6.27;;
30133;SDS011;16946;49.984;10.672;2023-02-28T02:01:59;6.53;;;5.93;;
30133;SDS011;16946;49.984;10.672;2023-02-28T02:02:30;6.50;;;5.65;;
30133;SDS011;16946;49.984;10.672;2023-02-28T02:03:08;6.47;;;5.53;;
30133;SDS011;16946;49.984;10.672;2023-02-28T02:03:41;6.30;;;5.70;;
30133;SDS011;16946;49.984;10.672;2023-02-28T02:04:12;6.40;;;5.80;;
30133;SDS011;16946;49.984;10.672;2023-02-28T02:04:46;6.83;;;6.13;;
30133;SDS011;16946;49.984;10.672;2023-02-28T02:05:23;7.40;;;6.18;;
30133;SDS011;16946;49.984;10.672;2023-02-28T02:05:56;8.20;;;6.07;;
30133;SDS011;16946;49.984;10.672;2023-02-28T02:06:45;7.83;;;6.50;;
30133;SDS011;16946;49.984;10.672;2023-02-28T02:07:17;9.10;;;6.45;;
30133;SDS011;16946;49.984;10.672;2023-02-28T02:07:49;6.33;;;5.73;;
30133;SDS011;16946;49.984;10.672;2023-02-28T02:08:40;8.07;;;6.25;;
30133;SDS011;16946;49.984;10.672;2023-02-28T02:09:11;7.37;;;5.73;;
30133;SDS011;16946;49.984;10.672;2023-02-28T02:09:42;6.50;;;5.90;;
30133;SDS011;16946;49.984;10.672;2023-02-28T02:10:17;8.53;;;6.00;;
30133;SDS011;16946;49.984;10.672;2023-02-28T02:10:50;6.80;;;6.00;;
30133;SDS011;16946;49.984;10.672;2023-02-28T02:11:23;8.07;;;5.65;;
30133;SDS011;16946;49.984;10.672;2023-02-28T02:11:55;7.85;;;7.05;;
30133;SDS011;16946;49.984;10.672;2023-02-28T02:12:35;9.85;;;7.72;;
30133;SDS011;16946;49.984;10.672;2023-02-28T02:13:43;9.50;;;7.80;;
30133;SDS011;16946;49.984;10.672;2023-02-28T02:14:40;10.13;;;7.15;;
30133;SDS011;16946;49.984;10.672;2023-02-28T02:15:21;8.10;;;7.20;;
30133;SDS011;16946;49.984;10.672;2023-02-28T02:16:10;7.82;;;6.53;;
30133;SDS011;16946;49.984;10.672;2023-02-28T02:17:35;7.72;;;7.00;;
30133;SDS011;16946;49.984;10.672;2023-02-28T02:23:57;7.75;;;6.32;;
30133;SDS011;16946;49.984;10.672;2023-02-28T02:25:53;6.72;;;6.00;;
30133;SDS011;16946;49.984;10.672;2023-02-28T02:27:48;7.22;;;6.53;;
30133;SDS011;16946;49.984;10.672;2023-02-28T02:28:44;7.78;;;6.90;;
30133;SDS011;16946;49.984;10.672;2023-02-28T02:33:05;7.63;;;6.50;;
30133;SDS011;16946;49.984;10.672;2023-02-28T02:36:25;7.75;;;5.95;;
30133;SDS011;16946;49.984;10.672;2023-02-28T02:37:07;7.35;;;6.30;;
30133;SDS011;16946;49.984;10.672;2023-02-28T02:38:19;7.45;;;6.68;;
30133;SDS011;16946;49.984;10.672;2023-02-28T02:39:06;7.88;;;7.03;;
30133;SDS011;16946;49.984;10.672;2023-02-28T02:41:28;8.30;;;6.65;;
30133;SDS011;16946;49.984;10.672;2023-02-28T02:41:45;7.50;;;6.38;;
30133;SDS011;16946;49.984;10.672;2023-02-28T02:42:45;9.30;;;7.20;;
30133;SDS011;16946;49.984;10.672;2023-02-28T02:43:25;8.00;;;6.60;;
30133;SDS011;16946;49.984;10.672;2023-02-28T02:44:05;7.20;;;6.03;;
30133;SDS011;16946;49.984;10.672;2023-02-28T02:44:55;8.63;;;6.70;;
30133;SDS011;16946;49.984;10.672;2023-02-28T02:45:36;7.70;;;5.88;;
30133;SDS011;16946;49.984;10.672;2023-02-28T02:46:15;7.00;;;6.07;;
30133;SDS011;16946;49.984;10.672;2023-02-28T02:46:54;9.43;;;7.70;;
30133;SDS011;16946;49.984;10.672;2023-02-28T02:47:30;9.68;;;8.20;;
30133;SDS011;16946;49.984;10.672;2023-02-28T02:48:04;9.30;;;7.85;;
30133;SDS011;16946;49.984;10.672;2023-02-28T02:48:39;9.43;;;8.25;;
30133;SDS011;16946;49.984;10.672;2023-02-28T02:49:30;9.55;;;8.23;;
30133;SDS011;16946;49.984;10.672;2023-02-28T02:50:04;10.80;;;7.80;;
30133;SDS011;16946;49.984;10.672;2023-02-28T02:50:39;9.85;;;7.78;;
30133;SDS011;16946;49.984;10.672;2023-02-28T02:51:22;9.77;;;8.15;;
30133;SDS011;16946;49.984;10.672;2023-02-28T02:51:54;9.32;;;7.55;;
30133;SDS011;16946;49.984;10.672;2023-02-28T02:52:30;9.88;;;7.72;;
30133;SDS011;16946;49.984;10.672;2023-02-28T02:53:06;8.52;;;7.15;;
30133;SDS011;16946;49.984;10.672;2023-02-28T02:53:46;8.98;;;6.53;;
30133;SDS011;16946;49.984;10.672;2023-02-28T02:54:21;8.05;;;6.60;;
30133;SDS011;16946;49.984;10.672;2023-02-28T02:54:58;7.70;;;6.90;;
30133;SDS011;16946;49.984;10.672;2023-02-28T02:55:31;8.25;;;7.18;;
30133;SDS011;16946;49.984;10.672;2023-02-28T02:56:04;7.45;;;5.75;;
30133;SDS011;16946;49.984;10.672;2023-02-28T02:56:37;6.05;;;5.45;;
30133;SDS011;16946;49.984;10.672;2023-02-28T02:57:13;6.55;;;5.88;;
30133;SDS011;16946;49.984;10.672;2023-02-28T02:57:49;7.38;;;6.00;;
30133;SDS011;16946;49.984;10.672;2023-02-28T02:58:24;6.53;;;5.70;;
30133;SDS011;16946;49.984;10.672;2023-02-28T02:59:01;6.18;;;5.57;;
30133;SDS011;16946;49.984;10.672;2023-02-28T02:59:34;7.72;;;6.45;;
30133;SDS011;16946;49.984;10.672;2023-02-28T03:00:08;6.90;;;6.20;;
30133;SDS011;16946;49.984;10.672;2023-02-28T03:00:43;8.20;;;6.30;;
30133;SDS011;16946;49.984;10.672;2023-02-28T03:01:20;7.60;;;6.55;;
30133;SDS011;16946;49.984;10.672;2023-02-28T03:01:59;7.10;;;6.32;;
30133;SDS011;16946;49.984;10.672;2023-02-28T03:02:34;7.55;;;6.63;;
30133;SDS011;16946;49.984;10.672;2023-02-28T03:03:08;6.63;;;5.90;;
30133;SDS011;16946;49.984;10.672;2023-02-28T03:03:41;6.70;;;6.00;;
30133;SDS011;16946;49.984;10.672;2023-02-28T03:04:14;6.53;;;5.93;;
30133;SDS011;16946;49.984;10.672;2023-02-28T03:04:50;8.27;;;6.65;;
30133;SDS011;16946;49.984;10.672;2023-02-28T03:05:24;7.25;;;6.45;;
30133;SDS011;16946;49.984;10.672;2023-02-28T03:05:58;7.32;;;6.45;;
30133;SDS011;16946;49.984;10.672;2023-02-28T03:06:30;7.80;;;7.00;;
30133;SDS011;16946;49.984;10.672;2023-02-28T03:07:01;8.20;;;7.17;;
30133;SDS011;16946;49.984;10.672;2023-02-28T03:07:32;8.47;;;7.63;;
30133;SDS011;16946;49.984;10.672;2023-02-28T03:08:03;7.70;;;6.57;;
30133;SDS011;16946;49.984;10.672;2023-02-28T03:08:36;8.63;;;6.78;;
30133;SDS011;16946;49.984;10.672;2023-02-28T03:09:07;7.75;;;6.88;;
30133;SDS011;16946;49.984;10.672;2023-02-28T03:09:38;8.10;;;7.20;;
30133;SDS011;16946;49.984;10.672;2023-02-28T03:11:01;7.97;;;6.47;;
30133;SDS011;16946;49.984;10.672;2023-02-28T03:11:35;7.32;;;5.97;;
30133;SDS011;16946;49.984;10.672;2023-02-28T03:12:09;8.32;;;6.28;;
30133;SDS011;16946;49.984;10.672;2023-02-28T03:12:46;7.10;;;6.20;;
30133;SDS011;16946;49.984;10.672;2023-02-28T03:17:47;7.70;;;6.40;;
30133;SDS011;16946;49.984;10.672;2023-02-28T03:18:36;6.93;;;6.25;;
30133;SDS011;16946;49.984;10.672;2023-02-28T03:20:15;8.13;;;7.20;;
30133;SDS011;16946;49.984;10.672;2023-02-28T03:21:02;8.25;;;7.32;;
30133;SDS011;16946;49.984;10.672;2023-02-28T03:23:54;8.77;;;6.93;;
30133;SDS011;16946;49.984;10.672;2023-02-28T03:24:41;9.43;;;7.80;;
30133;SDS011;16946;49.984;10.672;2023-02-28T03:25:27;9.10;;;7.65;;
30133;SDS011;16946;49.984;10.672;2023-02-28T03:26:17;9.73;;;7.50;;
30133;SDS011;16946;49.984;10.672;2023-02-28T03:26:54;9.50;;;7.88;;
30133;SDS011;16946;49.984;10.672;2023-02-28T03:27:36;10.00;;;8.40;;
30133;SDS011;16946;49.984;10.672;2023-02-28T03:29:33;12.55;;;9.27;;
30133;SDS011;16946;49.984;10.672;2023-02-28T03:30:41;10.65;;;8.88;;
30133;SDS011;16946;49.984;10.672;2023-02-28T03:32:03;11.18;;;9.20;;
30133;SDS011;16946;49.984;10.672;2023-02-28T03:32:37;11.10;;;8.45;;
30133;SDS011;16946;49.984;10.672;2023-02-28T03:33:48;10.77;;;8.73;;
30133;SDS011;16946;49.984;10.672;2023-02-28T03:34:29;14.32;;;11.25;;
30133;SDS011;16946;49.984;10.672;2023-02-28T03:35:07;14.45;;;11.63;;
30133;SDS011;16946;49.984;10.672;2023-02-28T03:35:43;13.10;;;10.48;;
30133;SDS011;16946;49.984;10.672;2023-02-28T03:36:22;11.00;;;9.05;;
30133;SDS011;16946;49.984;10.672;2023-02-28T03:36:59;10.20;;;8.65;;
30133;SDS011;16946;49.984;10.672;2023-02-28T03:37:36;10.20;;;8.02;;
30133;SDS011;16946;49.984;10.672;2023-02-28T03:38:18;8.27;;;7.28;;
30133;SDS011;16946;49.984;10.672;2023-02-28T03:38:58;8.98;;;7.65;;
30133;SDS011;16946;49.984;10.672;2023-02-28T03:39:35;10.48;;;8.45;;
30133;SDS011;16946;49.984;10.672;2023-02-28T03:40:11;9.55;;;8.07;;
30133;SDS011;16946;49.984;10.672;2023-02-28T03:40:47;7.10;;;6.38;;
30133;SDS011;16946;49.984;10.672;2023-02-28T03:41:37;8.75;;;7.53;;
30133;SDS011;16946;49.984;10.672;2023-02-28T03:42:14;10.00;;;8.20;;
30133;SDS011;16946;49.984;10.672;2023-02-28T03:42:48;9.70;;;7.65;;
30133;SDS011;16946;49.984;10.672;2023-02-28T03:43:27;7.97;;;7.10;;
30133;SDS011;16946;49.984;10.672;2023-02-28T03:44:10;7.53;;;6.38;;
30133;SDS011;16946;49.984;10.672;2023-02-28T03:44:46;8.52;;;7.47;;
30133;SDS011;16946;49.984;10.672;2023-02-28T03:45:24;7.70;;;6.18;;
30133;SDS011;16946;49.984;10.672;2023-02-28T03:45:57;7.47;;;6.55;;
30133;SDS011;16946;49.984;10.672;2023-02-28T03:46:31;7.88;;;6.50;;
30133;SDS011;16946;49.984;10.672;2023-02-28T03:47:16;7.60;;;6.70;;
30133;SDS011;16946;49.984;10.672;2023-02-28T03:47:52;7.13;;;6.22;;
30133;SDS011;16946;49.984;10.672;2023-02-28T03:48:35;7.15;;;6.43;;
30133;SDS011;16946;49.984;10.672;2023-02-28T03:49:16;6.47;;;5.80;;
30133;SDS011;16946;49.984;10.672;2023-02-28T03:49:54;6.82;;;6.05;;
30133;SDS011;16946;49.984;10.672;2023-02-28T03:50:41;6.55;;;5.82;;
30133;SDS011;16946;49.984;10.672;2023-02-28T03:51:16;7.05;;;6.35;;